sensor_id;sensor_type;location;lat;lon;timestamp;P1;durP1;ratioP1;P2;durP2;ratioP2
15667;SDS011;7934;48.710;9.024;2022-09-09T00:00:13;4.13;;;1.30;;
15667;SDS011;7934;48.710;9.024;2022-09-09T00:02:43;1.57;;;1.37;;
15667;SDS011;7934;48.710;9.024;2022-09-09T00:05:14;1.30;;;1.20;;
15667;SDS011;7934;48.710;9.024;2022-09-09T00:07:46;2.73;;;1.50;;
15667;SDS011;7934;48.710;9.024;2022-09-09T00:10:16;2.50;;;1.40;;
15667;SDS011;7934;48.710;9.024;2022-09-09T00:12:47;2.17;;;1.40;;
15667;SDS011;7934;48.710;9.024;2022-09-09T00:15:18;4.40;;;1.40;;
15667;SDS011;7934;48.710;9.024;2022-09-09T00:17:49;5.53;;;1.53;;
15667;SDS011;7934;48.710;9.024;2022-09-09T00:20:20;2.43;;;1.80;;
15667;SDS011;7934;48.710;9.024;2022-09-09T00:22:50;1.40;;;1.20;;
15667;SDS011;7934;48.710;9.024;2022-09-09T00:25:19;4.13;;;1.40;;
15667;SDS011;7934;48.710;9.024;2022-09-09T00:27:49;4.97;;;1.20;;
15667;SDS011;7934;48.710;9.024;2022-09-09T00:30:17;3.90;;;1.40;;
15667;SDS011;7934;48.710;9.024;2022-09-09T00:32:49;2.07;;;1.27;;
15667;SDS011;7934;48.710;9.024;2022-09-09T00:35:20;5.13;;;1.30;;
15667;SDS011;7934;48.710;9.024;2022-09-09T00:37:49;3.10;;;1.40;;
15667;SDS011;7934;48.710;9.024;2022-09-09T00:40:21;5.03;;;1.30;;
15667;SDS011;7934;48.710;9.024;2022-09-09T00:42:51;2.00;;;1.13;;
15667;SDS011;7934;48.710;9.024;2022-09-09T00:45:29;1.67;;;1.57;;
15667;SDS011;7934;48.710;9.024;2022-09-09T00:48:01;5.70;;;1.57;;
15667;SDS011;7934;48.710;9.024;2022-09-09T00:50:35;4.43;;;1.40;;
15667;SDS011;7934;48.710;9.024;2022-09-09T00:53:05;4.27;;;1.47;;
15667;SDS011;7934;48.710;9.024;2022-09-09T00:55:39;3.90;;;1.50;;
15667;SDS011;7934;48.710;9.024;2022-09-09T00:58:08;2.90;;;1.47;;
15667;SDS011;7934;48.710;9.024;2022-09-09T01:00:37;4.23;;;1.67;;
15667;SDS011;7934;48.710;9.024;2022-09-09T01:03:25;6.60;;;1.80;;
15667;SDS011;7934;48.710;9.024;2022-09-09T01:08:42;4.23;;;1.40;;
15667;SDS011;7934;48.710;9.024;2022-09-09T01:11:10;9.33;;;3.23;;
15667;SDS011;7934;48.710;9.024;2022-09-09T01:13:41;3.33;;;1.33;;
15667;SDS011;7934;48.710;9.024;2022-09-09T01:16:11;3.23;;;1.37;;
15667;SDS011;7934;48.710;9.024;2022-09-09T01:18:43;2.10;;;1.30;;
15667;SDS011;7934;48.710;9.024;2022-09-09T01:21:14;5.77;;;1.53;;
15667;SDS011;7934;48.710;9.024;2022-09-09T01:23:56;2.97;;;1.43;;
15667;SDS011;7934;48.710;9.024;2022-09-09T01:26:31;6.70;;;1.63;;
15667;SDS011;7934;48.710;9.024;2022-09-09T01:29:01;1.20;;;1.20;;
15667;SDS011;7934;48.710;9.024;2022-09-09T01:31:29;2.73;;;1.27;;
15667;SDS011;7934;48.710;9.024;2022-09-09T01:33:57;4.53;;;1.30;;
15667;SDS011;7934;48.710;9.024;2022-09-09T01:36:26;3.83;;;1.40;;
15667;SDS011;7934;48.710;9.024;2022-09-09T01:38:55;4.67;;;1.50;;
15667;SDS011;7934;48.710;9.024;2022-09-09T01:41:22;1.43;;;1.40;;
15667;SDS011;7934;48.710;9.024;2022-09-09T01:43:52;2.13;;;1.30;;
15667;SDS011;7934;48.710;9.024;2022-09-09T01:46:20;2.67;;;1.00;;
15667;SDS011;7934;48.710;9.024;2022-09-09T01:48:48;3.33;;;1.27;;
15667;SDS011;7934;48.710;9.024;2022-09-09T01:51:16;3.60;;;1.23;;
15667;SDS011;7934;48.710;9.024;2022-09-09T01:53:43;3.07;;;1.70;;
15667;SDS011;7934;48.710;9.024;2022-09-09T01:56:15;4.80;;;1.60;;
15667;SDS011;7934;48.710;9.024;2022-09-09T01:58:48;3.97;;;1.50;;
15667;SDS011;7934;48.710;9.024;2022-09-09T02:01:22;1.40;;;1.20;;
15667;SDS011;7934;48.710;9.024;2022-09-09T02:03:51;2.13;;;1.33;;
15667;SDS011;7934;48.710;9.024;2022-09-09T02:06:22;1.57;;;1.43;;
15667;SDS011;7934;48.710;9.024;2022-09-09T02:08:52;3.53;;;1.50;;
15667;SDS011;7934;48.710;9.024;2022-09-09T02:11:20;6.07;;;1.60;;
15667;SDS011;7934;48.710;9.024;2022-09-09T02:13:51;3.80;;;1.50;;
15667;SDS011;7934;48.710;9.024;2022-09-09T02:16:22;6.73;;;1.40;;
15667;SDS011;7934;48.710;9.024;2022-09-09T02:18:51;3.90;;;1.67;;
15667;SDS011;7934;48.710;9.024;2022-09-09T02:21:21;2.73;;;1.47;;
15667;SDS011;7934;48.710;9.024;2022-09-09T02:23:49;1.47;;;1.30;;
15667;SDS011;7934;48.710;9.024;2022-09-09T02:26:18;2.23;;;1.50;;
15667;SDS011;7934;48.710;9.024;2022-09-09T02:28:46;1.47;;;1.20;;
15667;SDS011;7934;48.710;9.024;2022-09-09T02:31:15;1.43;;;1.30;;
15667;SDS011;7934;48.710;9.024;2022-09-09T02:33:46;2.93;;;1.60;;
15667;SDS011;7934;48.710;9.024;2022-09-09T02:36:14;5.07;;;1.40;;
15667;SDS011;7934;48.710;9.024;2022-09-09T02:38:42;1.23;;;1.23;;
15667;SDS011;7934;48.710;9.024;2022-09-09T02:41:15;1.67;;;1.23;;
15667;SDS011;7934;48.710;9.024;2022-09-09T02:43:42;3.93;;;1.43;;
15667;SDS011;7934;48.710;9.024;2022-09-09T02:46:13;5.13;;;1.70;;
15667;SDS011;7934;48.710;9.024;2022-09-09T02:48:49;2.73;;;1.43;;
15667;SDS011;7934;48.710;9.024;2022-09-09T02:51:21;3.53;;;1.40;;
15667;SDS011;7934;48.710;9.024;2022-09-09T02:53:52;1.50;;;1.40;;
15667;SDS011;7934;48.710;9.024;2022-09-09T02:56:22;1.30;;;1.20;;
15667;SDS011;7934;48.710;9.024;2022-09-09T02:58:52;3.27;;;1.47;;
15667;SDS011;7934;48.710;9.024;2022-09-09T03:01:19;5.17;;;1.50;;
15667;SDS011;7934;48.710;9.024;2022-09-09T03:03:48;2.30;;;1.50;;
15667;SDS011;7934;48.710;9.024;2022-09-09T03:06:15;2.13;;;1.33;;
15667;SDS011;7934;48.710;9.024;2022-09-09T03:08:42;2.50;;;1.73;;
15667;SDS011;7934;48.710;9.024;2022-09-09T03:11:10;2.13;;;1.33;;
15667;SDS011;7934;48.710;9.024;2022-09-09T03:13:40;2.73;;;1.60;;
15667;SDS011;7934;48.710;9.024;2022-09-09T03:16:07;3.73;;;1.73;;
15667;SDS011;7934;48.710;9.024;2022-09-09T03:18:34;3.63;;;1.90;;
15667;SDS011;7934;48.710;9.024;2022-09-09T03:21:03;4.50;;;2.17;;
15667;SDS011;7934;48.710;9.024;2022-09-09T03:23:30;3.63;;;1.50;;
15667;SDS011;7934;48.710;9.024;2022-09-09T03:25:57;4.27;;;1.80;;
15667;SDS011;7934;48.710;9.024;2022-09-09T03:28:25;2.53;;;1.80;;
15667;SDS011;7934;48.710;9.024;2022-09-09T03:30:58;4.10;;;1.50;;
15667;SDS011;7934;48.710;9.024;2022-09-09T03:33:25;1.30;;;1.17;;
15667;SDS011;7934;48.710;9.024;2022-09-09T03:35:55;6.20;;;1.37;;
15667;SDS011;7934;48.710;9.024;2022-09-09T03:38:24;1.57;;;1.43;;
15667;SDS011;7934;48.710;9.024;2022-09-09T03:40:51;2.33;;;1.23;;
15667;SDS011;7934;48.710;9.024;2022-09-09T03:43:20;1.30;;;1.10;;
15667;SDS011;7934;48.710;9.024;2022-09-09T03:45:47;1.07;;;1.07;;
15667;SDS011;7934;48.710;9.024;2022-09-09T03:48:15;2.57;;;1.37;;
15667;SDS011;7934;48.710;9.024;2022-09-09T03:50:44;1.40;;;1.20;;
15667;SDS011;7934;48.710;9.024;2022-09-09T03:53:11;3.83;;;1.13;;
15667;SDS011;7934;48.710;9.024;2022-09-09T03:55:39;1.10;;;1.00;;
15667;SDS011;7934;48.710;9.024;2022-09-09T03:58:14;1.47;;;1.37;;
15667;SDS011;7934;48.710;9.024;2022-09-09T04:00:59;1.60;;;0.80;;
15667;SDS011;7934;48.710;9.024;2022-09-09T04:03:48;2.43;;;1.10;;
15667;SDS011;7934;48.710;9.024;2022-09-09T04:06:15;1.27;;;1.17;;
15667;SDS011;7934;48.710;9.024;2022-09-09T04:08:43;4.70;;;1.57;;
15667;SDS011;7934;48.710;9.024;2022-09-09T04:11:11;4.23;;;1.27;;
15667;SDS011;7934;48.710;9.024;2022-09-09T04:13:38;5.73;;;1.50;;
15667;SDS011;7934;48.710;9.024;2022-09-09T04:16:06;4.93;;;1.53;;
15667;SDS011;7934;48.710;9.024;2022-09-09T04:18:34;2.33;;;1.77;;
15667;SDS011;7934;48.710;9.024;2022-09-09T04:21:01;3.30;;;1.30;;
15667;SDS011;7934;48.710;9.024;2022-09-09T04:23:31;5.10;;;1.00;;
15667;SDS011;7934;48.710;9.024;2022-09-09T04:25:59;1.33;;;0.90;;
15667;SDS011;7934;48.710;9.024;2022-09-09T04:28:28;2.97;;;1.60;;
15667;SDS011;7934;48.710;9.024;2022-09-09T04:30:56;3.03;;;1.30;;
15667;SDS011;7934;48.710;9.024;2022-09-09T04:33:23;2.80;;;1.40;;
15667;SDS011;7934;48.710;9.024;2022-09-09T04:35:52;5.47;;;1.70;;
15667;SDS011;7934;48.710;9.024;2022-09-09T04:38:19;4.03;;;1.50;;
15667;SDS011;7934;48.710;9.024;2022-09-09T04:40:47;3.23;;;1.43;;
15667;SDS011;7934;48.710;9.024;2022-09-09T04:43:15;4.90;;;1.97;;
15667;SDS011;7934;48.710;9.024;2022-09-09T04:45:46;5.07;;;1.50;;
15667;SDS011;7934;48.710;9.024;2022-09-09T04:48:13;2.43;;;1.37;;
15667;SDS011;7934;48.710;9.024;2022-09-09T04:50:40;3.30;;;1.33;;
15667;SDS011;7934;48.710;9.024;2022-09-09T04:53:08;2.93;;;2.13;;
15667;SDS011;7934;48.710;9.024;2022-09-09T04:55:35;4.30;;;1.50;;
15667;SDS011;7934;48.710;9.024;2022-09-09T04:58:03;6.87;;;1.47;;
15667;SDS011;7934;48.710;9.024;2022-09-09T05:00:31;1.37;;;1.17;;
15667;SDS011;7934;48.710;9.024;2022-09-09T05:03:01;2.77;;;1.43;;
15667;SDS011;7934;48.710;9.024;2022-09-09T05:05:30;3.30;;;1.80;;
15667;SDS011;7934;48.710;9.024;2022-09-09T05:08:00;5.63;;;1.53;;
15667;SDS011;7934;48.710;9.024;2022-09-09T05:10:28;3.50;;;1.30;;
15667;SDS011;7934;48.710;9.024;2022-09-09T05:12:55;1.63;;;1.53;;
15667;SDS011;7934;48.710;9.024;2022-09-09T05:15:22;1.63;;;1.50;;
15667;SDS011;7934;48.710;9.024;2022-09-09T05:17:50;3.63;;;1.53;;
15667;SDS011;7934;48.710;9.024;2022-09-09T05:20:19;2.03;;;1.57;;
15667;SDS011;7934;48.710;9.024;2022-09-09T05:22:47;2.93;;;1.67;;
15667;SDS011;7934;48.710;9.024;2022-09-09T05:25:14;5.63;;;1.37;;
15667;SDS011;7934;48.710;9.024;2022-09-09T05:27:41;3.70;;;1.67;;
15667;SDS011;7934;48.710;9.024;2022-09-09T05:30:11;4.00;;;1.43;;
15667;SDS011;7934;48.710;9.024;2022-09-09T05:32:38;1.53;;;1.40;;
15667;SDS011;7934;48.710;9.024;2022-09-09T05:35:06;1.43;;;1.43;;
15667;SDS011;7934;48.710;9.024;2022-09-09T05:37:34;3.80;;;1.30;;
15667;SDS011;7934;48.710;9.024;2022-09-09T05:40:02;2.13;;;1.30;;
15667;SDS011;7934;48.710;9.024;2022-09-09T05:42:29;2.30;;;1.30;;
15667;SDS011;7934;48.710;9.024;2022-09-09T05:44:57;3.70;;;1.47;;
15667;SDS011;7934;48.710;9.024;2022-09-09T05:47:25;1.77;;;1.23;;
15667;SDS011;7934;48.710;9.024;2022-09-09T05:49:52;4.43;;;1.37;;
15667;SDS011;7934;48.710;9.024;2022-09-09T05:52:20;2.67;;;1.30;;
15667;SDS011;7934;48.710;9.024;2022-09-09T05:54:49;1.90;;;1.30;;
15667;SDS011;7934;48.710;9.024;2022-09-09T05:57:16;2.17;;;1.33;;
15667;SDS011;7934;48.710;9.024;2022-09-09T05:59:44;3.90;;;1.40;;
15667;SDS011;7934;48.710;9.024;2022-09-09T06:02:11;4.57;;;1.23;;
15667;SDS011;7934;48.710;9.024;2022-09-09T06:04:42;3.43;;;1.37;;
15667;SDS011;7934;48.710;9.024;2022-09-09T06:07:09;2.10;;;1.03;;
15667;SDS011;7934;48.710;9.024;2022-09-09T06:09:36;5.03;;;1.73;;
15667;SDS011;7934;48.710;9.024;2022-09-09T06:12:05;4.87;;;1.80;;
15667;SDS011;7934;48.710;9.024;2022-09-09T06:14:32;1.70;;;1.10;;
15667;SDS011;7934;48.710;9.024;2022-09-09T06:16:59;6.37;;;1.20;;
15667;SDS011;7934;48.710;9.024;2022-09-09T06:19:27;4.10;;;1.50;;
15667;SDS011;7934;48.710;9.024;2022-09-09T06:21:55;2.80;;;1.40;;
15667;SDS011;7934;48.710;9.024;2022-09-09T06:24:23;4.10;;;1.63;;
15667;SDS011;7934;48.710;9.024;2022-09-09T06:26:51;3.60;;;1.03;;
15667;SDS011;7934;48.710;9.024;2022-09-09T06:29:20;3.10;;;1.27;;
15667;SDS011;7934;48.710;9.024;2022-09-09T06:31:47;3.27;;;1.30;;
15667;SDS011;7934;48.710;9.024;2022-09-09T06:34:14;2.83;;;1.33;;
15667;SDS011;7934;48.710;9.024;2022-09-09T06:36:44;3.50;;;1.40;;
15667;SDS011;7934;48.710;9.024;2022-09-09T06:39:11;5.70;;;1.40;;
15667;SDS011;7934;48.710;9.024;2022-09-09T06:41:40;1.87;;;1.40;;
15667;SDS011;7934;48.710;9.024;2022-09-09T06:44:08;8.03;;;1.53;;
15667;SDS011;7934;48.710;9.024;2022-09-09T06:46:38;3.83;;;1.67;;
15667;SDS011;7934;48.710;9.024;2022-09-09T06:49:05;3.73;;;1.40;;
15667;SDS011;7934;48.710;9.024;2022-09-09T06:51:33;3.50;;;1.70;;
15667;SDS011;7934;48.710;9.024;2022-09-09T06:54:01;8.07;;;1.60;;
15667;SDS011;7934;48.710;9.024;2022-09-09T06:56:29;3.77;;;1.30;;
15667;SDS011;7934;48.710;9.024;2022-09-09T06:58:57;2.83;;;1.70;;
15667;SDS011;7934;48.710;9.024;2022-09-09T07:01:26;2.90;;;1.40;;
15667;SDS011;7934;48.710;9.024;2022-09-09T07:03:56;4.50;;;1.70;;
15667;SDS011;7934;48.710;9.024;2022-09-09T07:06:25;1.57;;;1.40;;
15667;SDS011;7934;48.710;9.024;2022-09-09T07:08:53;2.67;;;1.33;;
15667;SDS011;7934;48.710;9.024;2022-09-09T07:11:21;2.83;;;1.40;;
15667;SDS011;7934;48.710;9.024;2022-09-09T07:13:49;5.53;;;1.30;;
15667;SDS011;7934;48.710;9.024;2022-09-09T07:16:17;2.70;;;1.30;;
15667;SDS011;7934;48.710;9.024;2022-09-09T07:18:45;2.83;;;1.50;;
15667;SDS011;7934;48.710;9.024;2022-09-09T07:21:14;1.73;;;1.30;;
15667;SDS011;7934;48.710;9.024;2022-09-09T07:23:41;5.27;;;1.37;;
15667;SDS011;7934;48.710;9.024;2022-09-09T07:26:09;1.77;;;1.40;;
15667;SDS011;7934;48.710;9.024;2022-09-09T07:28:37;3.10;;;1.50;;
15667;SDS011;7934;48.710;9.024;2022-09-09T07:31:04;1.97;;;1.37;;
15667;SDS011;7934;48.710;9.024;2022-09-09T07:33:32;2.27;;;1.30;;
15667;SDS011;7934;48.710;9.024;2022-09-09T07:36:04;7.43;;;1.40;;
15667;SDS011;7934;48.710;9.024;2022-09-09T07:38:36;2.67;;;1.40;;
15667;SDS011;7934;48.710;9.024;2022-09-09T07:41:05;5.30;;;1.47;;
15667;SDS011;7934;48.710;9.024;2022-09-09T07:43:33;3.90;;;1.70;;
15667;SDS011;7934;48.710;9.024;2022-09-09T07:46:00;2.30;;;1.60;;
15667;SDS011;7934;48.710;9.024;2022-09-09T07:48:31;2.53;;;1.70;;
15667;SDS011;7934;48.710;9.024;2022-09-09T07:51:08;1.67;;;1.23;;
15667;SDS011;7934;48.710;9.024;2022-09-09T07:53:38;1.27;;;1.13;;
15667;SDS011;7934;48.710;9.024;2022-09-09T07:56:06;2.60;;;1.40;;
15667;SDS011;7934;48.710;9.024;2022-09-09T07:58:34;3.27;;;1.00;;
15667;SDS011;7934;48.710;9.024;2022-09-09T08:01:05;3.63;;;1.40;;
15667;SDS011;7934;48.710;9.024;2022-09-09T08:03:33;4.07;;;1.23;;
15667;SDS011;7934;48.710;9.024;2022-09-09T08:06:00;4.80;;;1.40;;
15667;SDS011;7934;48.710;9.024;2022-09-09T08:08:28;3.80;;;1.27;;
15667;SDS011;7934;48.710;9.024;2022-09-09T08:11:04;2.83;;;1.40;;
15667;SDS011;7934;48.710;9.024;2022-09-09T08:13:32;12.23;;;1.50;;
15667;SDS011;7934;48.710;9.024;2022-09-09T08:16:05;4.97;;;1.50;;
15667;SDS011;7934;48.710;9.024;2022-09-09T08:18:33;3.60;;;1.50;;
15667;SDS011;7934;48.710;9.024;2022-09-09T08:21:10;4.93;;;1.60;;
15667;SDS011;7934;48.710;9.024;2022-09-09T08:23:39;3.77;;;1.67;;
15667;SDS011;7934;48.710;9.024;2022-09-09T08:26:09;4.73;;;1.40;;
15667;SDS011;7934;48.710;9.024;2022-09-09T08:28:37;8.07;;;1.77;;
15667;SDS011;7934;48.710;9.024;2022-09-09T08:31:05;4.23;;;1.70;;
15667;SDS011;7934;48.710;9.024;2022-09-09T08:33:32;2.57;;;1.47;;
15667;SDS011;7934;48.710;9.024;2022-09-09T08:35:59;3.37;;;1.80;;
15667;SDS011;7934;48.710;9.024;2022-09-09T08:38:26;2.00;;;1.17;;
15667;SDS011;7934;48.710;9.024;2022-09-09T08:40:54;5.13;;;1.30;;
15667;SDS011;7934;48.710;9.024;2022-09-09T08:43:27;3.00;;;1.30;;
15667;SDS011;7934;48.710;9.024;2022-09-09T08:45:57;4.10;;;1.50;;
15667;SDS011;7934;48.710;9.024;2022-09-09T08:48:33;1.83;;;1.10;;
15667;SDS011;7934;48.710;9.024;2022-09-09T08:51:06;2.50;;;1.27;;
15667;SDS011;7934;48.710;9.024;2022-09-09T08:53:38;3.40;;;1.10;;
15667;SDS011;7934;48.710;9.024;2022-09-09T08:56:08;4.70;;;1.37;;
15667;SDS011;7934;48.710;9.024;2022-09-09T08:58:40;3.00;;;1.00;;
15667;SDS011;7934;48.710;9.024;2022-09-09T09:01:14;7.27;;;1.73;;
15667;SDS011;7934;48.710;9.024;2022-09-09T09:03:46;5.97;;;1.70;;
15667;SDS011;7934;48.710;9.024;2022-09-09T09:06:19;2.23;;;1.33;;
15667;SDS011;7934;48.710;9.024;2022-09-09T09:08:50;4.67;;;1.50;;
15667;SDS011;7934;48.710;9.024;2022-09-09T09:11:18;6.37;;;1.30;;
15667;SDS011;7934;48.710;9.024;2022-09-09T09:13:48;2.00;;;0.90;;
15667;SDS011;7934;48.710;9.024;2022-09-09T09:16:19;2.10;;;1.00;;
15667;SDS011;7934;48.710;9.024;2022-09-09T09:18:48;3.53;;;0.90;;
15667;SDS011;7934;48.710;9.024;2022-09-09T09:21:16;1.33;;;0.77;;
15667;SDS011;7934;48.710;9.024;2022-09-09T09:23:48;2.03;;;0.83;;
15667;SDS011;7934;48.710;9.024;2022-09-09T09:26:18;2.73;;;1.07;;
15667;SDS011;7934;48.710;9.024;2022-09-09T09:28:48;2.53;;;0.90;;
15667;SDS011;7934;48.710;9.024;2022-09-09T09:31:16;2.43;;;0.77;;
15667;SDS011;7934;48.710;9.024;2022-09-09T09:33:47;2.13;;;0.90;;
15667;SDS011;7934;48.710;9.024;2022-09-09T09:36:15;1.90;;;1.10;;
15667;SDS011;7934;48.710;9.024;2022-09-09T09:38:51;4.10;;;0.90;;
15667;SDS011;7934;48.710;9.024;2022-09-09T09:41:28;2.10;;;0.73;;
15667;SDS011;7934;48.710;9.024;2022-09-09T09:43:57;1.33;;;1.00;;
15667;SDS011;7934;48.710;9.024;2022-09-09T09:46:26;3.53;;;1.20;;
15667;SDS011;7934;48.710;9.024;2022-09-09T09:48:57;4.50;;;1.43;;
15667;SDS011;7934;48.710;9.024;2022-09-09T09:51:24;1.13;;;1.03;;
15667;SDS011;7934;48.710;9.024;2022-09-09T09:53:52;2.50;;;0.80;;
15667;SDS011;7934;48.710;9.024;2022-09-09T09:56:26;5.97;;;1.10;;
15667;SDS011;7934;48.710;9.024;2022-09-09T09:58:53;2.20;;;1.10;;
15667;SDS011;7934;48.710;9.024;2022-09-09T10:01:23;1.43;;;1.20;;
15667;SDS011;7934;48.710;9.024;2022-09-09T10:03:52;2.60;;;1.57;;
15667;SDS011;7934;48.710;9.024;2022-09-09T10:06:28;4.17;;;1.27;;
15667;SDS011;7934;48.710;9.024;2022-09-09T10:08:56;1.70;;;1.23;;
15667;SDS011;7934;48.710;9.024;2022-09-09T10:11:27;1.40;;;1.30;;
15667;SDS011;7934;48.710;9.024;2022-09-09T10:13:58;4.00;;;1.40;;
15667;SDS011;7934;48.710;9.024;2022-09-09T10:16:33;3.93;;;1.50;;
15667;SDS011;7934;48.710;9.024;2022-09-09T10:19:04;1.03;;;1.00;;
15667;SDS011;7934;48.710;9.024;2022-09-09T10:21:43;1.20;;;1.10;;
15667;SDS011;7934;48.710;9.024;2022-09-09T10:24:22;1.93;;;1.13;;
15667;SDS011;7934;48.710;9.024;2022-09-09T10:26:54;3.07;;;1.40;;
15667;SDS011;7934;48.710;9.024;2022-09-09T10:29:26;3.70;;;1.23;;
15667;SDS011;7934;48.710;9.024;2022-09-09T10:32:00;2.73;;;1.57;;
15667;SDS011;7934;48.710;9.024;2022-09-09T10:34:35;4.10;;;1.20;;
15667;SDS011;7934;48.710;9.024;2022-09-09T10:37:11;3.90;;;1.07;;
15667;SDS011;7934;48.710;9.024;2022-09-09T10:39:47;2.00;;;1.20;;
15667;SDS011;7934;48.710;9.024;2022-09-09T10:42:16;1.57;;;1.03;;
15667;SDS011;7934;48.710;9.024;2022-09-09T10:44:47;2.40;;;1.23;;
15667;SDS011;7934;48.710;9.024;2022-09-09T10:47:24;2.63;;;1.50;;
15667;SDS011;7934;48.710;9.024;2022-09-09T10:50:01;2.87;;;1.07;;
15667;SDS011;7934;48.710;9.024;2022-09-09T10:52:36;2.93;;;1.40;;
15667;SDS011;7934;48.710;9.024;2022-09-09T10:55:07;2.50;;;0.93;;
15667;SDS011;7934;48.710;9.024;2022-09-09T10:57:40;2.60;;;1.00;;
15667;SDS011;7934;48.710;9.024;2022-09-09T11:00:13;3.53;;;1.07;;
15667;SDS011;7934;48.710;9.024;2022-09-09T11:02:43;1.10;;;1.00;;
15667;SDS011;7934;48.710;9.024;2022-09-09T11:05:14;1.43;;;0.80;;
15667;SDS011;7934;48.710;9.024;2022-09-09T11:07:44;2.30;;;0.97;;
15667;SDS011;7934;48.710;9.024;2022-09-09T11:10:16;4.83;;;1.40;;
15667;SDS011;7934;48.710;9.024;2022-09-09T11:12:45;2.23;;;0.90;;
15667;SDS011;7934;48.710;9.024;2022-09-09T11:15:14;1.10;;;1.10;;
15667;SDS011;7934;48.710;9.024;2022-09-09T11:17:46;2.50;;;1.03;;
15667;SDS011;7934;48.710;9.024;2022-09-09T11:20:15;4.00;;;1.00;;
15667;SDS011;7934;48.710;9.024;2022-09-09T11:22:44;2.73;;;1.17;;
15667;SDS011;7934;48.710;9.024;2022-09-09T11:25:14;1.60;;;0.80;;
15667;SDS011;7934;48.710;9.024;2022-09-09T11:27:49;3.53;;;0.80;;
15667;SDS011;7934;48.710;9.024;2022-09-09T11:30:19;2.37;;;0.90;;
15667;SDS011;7934;48.710;9.024;2022-09-09T11:33:01;2.47;;;0.70;;
15667;SDS011;7934;48.710;9.024;2022-09-09T11:35:33;3.93;;;0.60;;
15667;SDS011;7934;48.710;9.024;2022-09-09T11:38:13;1.00;;;0.60;;
15667;SDS011;7934;48.710;9.024;2022-09-09T11:40:42;0.83;;;0.40;;
15667;SDS011;7934;48.710;9.024;2022-09-09T11:43:12;3.23;;;0.60;;
15667;SDS011;7934;48.710;9.024;2022-09-09T11:45:40;2.53;;;0.73;;
15667;SDS011;7934;48.710;9.024;2022-09-09T11:48:21;0.63;;;0.60;;
15667;SDS011;7934;48.710;9.024;2022-09-09T11:50:57;1.23;;;0.70;;
15667;SDS011;7934;48.710;9.024;2022-09-09T11:53:24;1.40;;;0.80;;
15667;SDS011;7934;48.710;9.024;2022-09-09T11:56:08;2.40;;;0.77;;
15667;SDS011;7934;48.710;9.024;2022-09-09T11:58:43;0.83;;;0.83;;
15667;SDS011;7934;48.710;9.024;2022-09-09T12:01:28;2.40;;;0.80;;
15667;SDS011;7934;48.710;9.024;2022-09-09T12:04:04;1.37;;;0.50;;
15667;SDS011;7934;48.710;9.024;2022-09-09T12:06:33;1.33;;;0.80;;
15667;SDS011;7934;48.710;9.024;2022-09-09T12:09:16;1.50;;;0.83;;
15667;SDS011;7934;48.710;9.024;2022-09-09T12:11:44;3.17;;;0.70;;
15667;SDS011;7934;48.710;9.024;2022-09-09T12:14:20;0.77;;;0.70;;
15667;SDS011;7934;48.710;9.024;2022-09-09T12:16:48;0.60;;;0.57;;
15667;SDS011;7934;48.710;9.024;2022-09-09T12:19:18;0.37;;;0.37;;
15667;SDS011;7934;48.710;9.024;2022-09-09T12:21:48;1.03;;;0.80;;
15667;SDS011;7934;48.710;9.024;2022-09-09T12:24:18;1.93;;;1.00;;
15667;SDS011;7934;48.710;9.024;2022-09-09T12:26:47;1.70;;;0.60;;
15667;SDS011;7934;48.710;9.024;2022-09-09T12:29:21;4.00;;;0.77;;
15667;SDS011;7934;48.710;9.024;2022-09-09T12:31:51;2.87;;;0.90;;
15667;SDS011;7934;48.710;9.024;2022-09-09T12:34:26;2.50;;;0.90;;
15667;SDS011;7934;48.710;9.024;2022-09-09T12:36:57;0.60;;;0.60;;
15667;SDS011;7934;48.710;9.024;2022-09-09T12:39:28;6.83;;;0.90;;
15667;SDS011;7934;48.710;9.024;2022-09-09T12:41:56;3.80;;;0.97;;
15667;SDS011;7934;48.710;9.024;2022-09-09T12:44:26;1.37;;;0.70;;
15667;SDS011;7934;48.710;9.024;2022-09-09T12:46:54;2.33;;;0.87;;
15667;SDS011;7934;48.710;9.024;2022-09-09T12:49:28;1.63;;;0.80;;
15667;SDS011;7934;48.710;9.024;2022-09-09T12:51:59;2.97;;;1.00;;
15667;SDS011;7934;48.710;9.024;2022-09-09T12:54:29;4.43;;;1.13;;
15667;SDS011;7934;48.710;9.024;2022-09-09T12:56:56;3.70;;;0.90;;
15667;SDS011;7934;48.710;9.024;2022-09-09T12:59:24;6.40;;;1.17;;
15667;SDS011;7934;48.710;9.024;2022-09-09T13:01:55;1.90;;;0.73;;
15667;SDS011;7934;48.710;9.024;2022-09-09T13:04:27;3.13;;;0.70;;
15667;SDS011;7934;48.710;9.024;2022-09-09T13:07:04;1.40;;;0.80;;
15667;SDS011;7934;48.710;9.024;2022-09-09T13:09:34;1.97;;;0.90;;
15667;SDS011;7934;48.710;9.024;2022-09-09T13:12:03;1.37;;;0.80;;
15667;SDS011;7934;48.710;9.024;2022-09-09T13:14:33;2.67;;;0.90;;
15667;SDS011;7934;48.710;9.024;2022-09-09T13:17:03;0.70;;;0.70;;
15667;SDS011;7934;48.710;9.024;2022-09-09T13:19:32;2.50;;;0.90;;
15667;SDS011;7934;48.710;9.024;2022-09-09T13:22:00;1.50;;;0.90;;
15667;SDS011;7934;48.710;9.024;2022-09-09T13:24:38;0.70;;;0.67;;
15667;SDS011;7934;48.710;9.024;2022-09-09T13:27:20;1.27;;;0.70;;
15667;SDS011;7934;48.710;9.024;2022-09-09T13:29:51;2.00;;;0.70;;
15667;SDS011;7934;48.710;9.024;2022-09-09T13:32:20;1.53;;;0.87;;
15667;SDS011;7934;48.710;9.024;2022-09-09T13:34:51;0.77;;;0.60;;
15667;SDS011;7934;48.710;9.024;2022-09-09T13:37:20;2.73;;;0.70;;
15667;SDS011;7934;48.710;9.024;2022-09-09T13:39:50;2.27;;;0.90;;
15667;SDS011;7934;48.710;9.024;2022-09-09T13:42:21;1.83;;;0.90;;
15667;SDS011;7934;48.710;9.024;2022-09-09T13:44:51;0.70;;;0.70;;
15667;SDS011;7934;48.710;9.024;2022-09-09T13:47:18;1.97;;;0.90;;
15667;SDS011;7934;48.710;9.024;2022-09-09T13:49:46;2.07;;;0.70;;
15667;SDS011;7934;48.710;9.024;2022-09-09T13:52:15;1.73;;;0.93;;
15667;SDS011;7934;48.710;9.024;2022-09-09T13:54:46;1.30;;;0.73;;
15667;SDS011;7934;48.710;9.024;2022-09-09T13:57:14;1.43;;;1.30;;
15667;SDS011;7934;48.710;9.024;2022-09-09T13:59:43;1.50;;;0.90;;
15667;SDS011;7934;48.710;9.024;2022-09-09T14:02:10;1.80;;;1.10;;
15667;SDS011;7934;48.710;9.024;2022-09-09T14:04:37;1.80;;;0.90;;
15667;SDS011;7934;48.710;9.024;2022-09-09T14:07:07;1.50;;;0.87;;
15667;SDS011;7934;48.710;9.024;2022-09-09T14:09:37;2.67;;;0.70;;
15667;SDS011;7934;48.710;9.024;2022-09-09T14:12:05;3.37;;;0.97;;
15667;SDS011;7934;48.710;9.024;2022-09-09T14:14:32;2.57;;;0.90;;
15667;SDS011;7934;48.710;9.024;2022-09-09T14:17:00;1.60;;;0.57;;
15667;SDS011;7934;48.710;9.024;2022-09-09T14:19:27;4.00;;;0.67;;
15667;SDS011;7934;48.710;9.024;2022-09-09T14:21:54;1.70;;;0.70;;
15667;SDS011;7934;48.710;9.024;2022-09-09T14:24:24;1.00;;;0.50;;
15667;SDS011;7934;48.710;9.024;2022-09-09T14:26:54;1.77;;;0.70;;
15667;SDS011;7934;48.710;9.024;2022-09-09T14:29:21;2.13;;;0.80;;
15667;SDS011;7934;48.710;9.024;2022-09-09T14:31:50;2.37;;;0.80;;
15667;SDS011;7934;48.710;9.024;2022-09-09T14:34:17;2.33;;;0.83;;
15667;SDS011;7934;48.710;9.024;2022-09-09T14:36:44;1.73;;;0.60;;
15667;SDS011;7934;48.710;9.024;2022-09-09T14:39:11;0.73;;;0.73;;
15667;SDS011;7934;48.710;9.024;2022-09-09T14:41:39;0.53;;;0.53;;
15667;SDS011;7934;48.710;9.024;2022-09-09T14:44:07;4.07;;;0.70;;
15667;SDS011;7934;48.710;9.024;2022-09-09T14:46:35;2.53;;;0.60;;
15667;SDS011;7934;48.710;9.024;2022-09-09T14:49:02;3.57;;;0.70;;
15667;SDS011;7934;48.710;9.024;2022-09-09T14:51:29;2.33;;;1.20;;
15667;SDS011;7934;48.710;9.024;2022-09-09T14:53:57;0.67;;;0.60;;
15667;SDS011;7934;48.710;9.024;2022-09-09T14:56:28;2.23;;;1.00;;
15667;SDS011;7934;48.710;9.024;2022-09-09T14:58:55;1.80;;;0.90;;
15667;SDS011;7934;48.710;9.024;2022-09-09T15:01:24;4.00;;;1.17;;
15667;SDS011;7934;48.710;9.024;2022-09-09T15:03:53;1.23;;;0.63;;
15667;SDS011;7934;48.710;9.024;2022-09-09T15:06:21;2.30;;;1.27;;
15667;SDS011;7934;48.710;9.024;2022-09-09T15:08:49;4.13;;;0.97;;
15667;SDS011;7934;48.710;9.024;2022-09-09T15:11:17;1.20;;;0.67;;
15667;SDS011;7934;48.710;9.024;2022-09-09T15:13:45;1.37;;;0.90;;
15667;SDS011;7934;48.710;9.024;2022-09-09T15:16:13;3.57;;;1.00;;
15667;SDS011;7934;48.710;9.024;2022-09-09T15:18:42;1.57;;;0.90;;